METAR Data
IDs: Format: Raw Decoded Include TAF

Data at: 0201 UTC 24 Oct 2019

METAR for:KIOW (Iowa City Muni, IA, US)
Text:KIOW 240152Z AUTO 36010G22KT 10SM OVC075 08/04 A3002 RMK AO2 SLP168 T00780039
Temperature: 7.8°C ( 46°F)
Dewpoint: 3.9°C ( 39°F) [RH = 76%]
Pressure (altimeter):30.02 inches Hg (1016.7 mb) [Sea level pressure: 1016.8 mb]
Winds:from the N (360 degrees) at 12 MPH (10 knots; 5.1 m/s) gusting to 25 MPH (22 knots; 11.3 m/s)
Visibility:10 or more sm (16+ km)
Ceiling:7500 feet AGL
Clouds: overcast cloud deck at 7500 feet AGL
QC Flag:automated observation with no human augmentation